ENBN/BNN METAR and TAF weather

Enter ICAO airport designator
Station Type Date Time Source
ENBN METAR 2020/06/06 20:20 UTC NOAA

ENBN 062020Z AUTO 04007KT 9999NDV BKN120/// 15/08 Q0990


Station Type Date Time Source
ENBN Decoded METAR 2020/06/06 20:20 UTC NOAA

Bronnoysund / Bronnoy, Norway (ENBN) 65-28N 012-13E 9M
Jun 06, 2020 - 04:20 PM EDT / 2020.06.06 2020 UTC
Wind: from the NE (040 degrees) at 8 MPH (7 KT):0
Sky conditions: mostly cloudy
Temperature: 59 F (15 C)
Dew Point: 46 F (8 C)
Relative Humidity: 62%
Pressure (altimeter): 29.23 in. Hg (0990 hPa)
ob: ENBN 062020Z AUTO 04007KT 9999NDV BKN120/// 15/08 Q0990
cycle: 20

Station Type Date Time Source
ENBN TAF 2011/03/27 18:12 UTC NOAA

TAF TAF ENBN 261700Z 2618/2718 CNL

Example: see airport list